Espanola, Washington
Current Conditions -  °F | °C
As of 5:58 PM on Tuesday 21 Oct 2014 (Local Time) from KSKA Reporting Station
Broken Clouds Broken Clouds  
Wind Chill: 11°   Ceiling: 3500
Heat Index: 11°   Visibility: 10mi
Dew Point:   Wind: 7mph
Humidity: 69%   Direction: 180°S
Pressure: 29.96"   Gusts: NA
Location:  47.6094°N, 117.705°W
Report Text: KSKA 220058Z AUTO 18006KT 10SM BKN035 12/06 A2996 RMK AO2 SLP151 T01150059
Loading
Personal Weather Stations






























Interactive Weather Map
Tropical Storm Tracking
New forecast layout! Learn more

10-Day Weather Forecast

Advertisements
Track Severe Weather on mobile